Seeley, CA

7:08 AM PST en Diciembre 21, 2014 (GMT -0800)
El Centro Naval Air Facility | Change Station
CLOSE
Current Station
Aeropuerto
Location: El Centro,
Altura: -43 ft
Estaciones meteorológicas cercanas

Alt -43 ft 32.83 °N, 115.66 °W | Updated 12 minutes ago

Clear
Despejado
45 ° F
Sensación térmica 45 ° F
N
0
Viento Variable Viento desde Norte

Hoy
Alta -- | Baja -- ° F
--% Posibilidad de precipitaciones
Ayer
Alta -- | Baja -- ° F
Precip. -- pul
6:41 AM 4:40 PM
Creciente menguante, 0% visible
Presión 30.17 pul
Visibilidad 10.0 Millas
Nubes Despejado
Punto de rocío 40 ° F
Humedad 82%
Precipitaciones 0.00 pul
Espesor de la nieve No disponible.
UV 0 de una escala de 12
Polen 6.80 de una escala de 12
Calidad del aire No disponible.
Flu Activity No disponible.
METAR KNJK 211456Z AUTO 00000KT 10SM CLR 07/04 A3012 RMK AO2 SLP214 T00720044 53003

More Conditions Fewer Conditions

Presión 30.17 pul
Visibilidad 10.0 Millas
Nubes Despejado
Punto de rocío 40 ° F
Humedad 82%
Precipitaciones 0.00 pul
Espesor de la nieve No disponible.
UV 0 de una escala de 12
Polen 6.80 de una escala de 12
Calidad del aire No disponible.
Flu Activity No disponible.
METAR KNJK 211456Z AUTO 00000KT 10SM CLR 07/04 A3012 RMK AO2 SLP214 T00720044 53003

More Conditions Fewer Conditions

10-Day Weather Forecast

Almanac

Astronomía

Dec. 21, 2014 Salida Puesta
Hora real
Crepúsculo civil
Crepúsculo náutico
Crepúsculo astronómico
Luna
Horas de luz
Horas de luz
Tomorrow will be .
, % of the Moon is Illuminated

Extremos de hoy

Máximos del estado Bajos del estado

Community

WunderPhotos

Upload Photos

1,779,400 ¡fotos cargadas!

WunderBlogs® & News

Nearby

Calidad del aire

  Calidad del aire Índice AQ Contaminante
Not available.

Grosos de nieve

Estación Profundido Altura

Actividad de terremotos

Ciudad Distance Mag. Tiempo y dato
Magnitud mínima muestra es 2,5.

Temperaturas de aguas costeras

Lugar Temperatura

Estaciones meteorológicas cercanas